Time;durP1;ratioP1;P1;durP2;ratioP2;P2;SDS_P1;SDS_P2;PMS_P1;PMS_P2;Temp;Humidity;BMP_temperature;BMP_pressure;BME280_temperature;BME280_humidity;BME280_pressure;Samples;Min_cycle;Max_cycle;Signal;HPM_P1;HPM_P2
2022/02/01 00:00:40;;;;;;;5.62;3.35;;;4.00;88.40;;;;;;1904182;75;21032;-43
2022/02/01 00:02:58;;;;;;;6.78;3.70;;;4.00;88.30;;;;;;1896986;75;21076;-44
2022/02/01 00:05:30;;;;;;;6.08;3.45;;;4.00;88.60;;;;;;1901906;75;21039;-44
2022/02/01 00:10:52;;;;;;;6.50;2.65;;;4.00;88.90;;;;;;1904080;75;21090;-45
2022/02/01 00:38:04;;;;;;;7.50;4.25;;;3.70;89.40;;;;;;1814200;78;21136;-44
2022/02/01 00:40:32;;;;;;;6.92;3.35;;;3.80;89.60;;;;;;1903569;75;21039;-44
2022/02/01 00:43:01;;;;;;;7.97;4.62;;;3.90;89.50;;;;;;1904285;75;21555;-44
2022/02/01 00:45:30;;;;;;;9.20;4.35;;;3.90;89.50;;;;;;1901013;75;21142;-45
2022/02/01 00:48:00;;;;;;;7.85;3.58;;;4.00;89.60;;;;;;1900986;75;21090;-44
2022/02/01 00:50:30;;;;;;;5.97;3.60;;;4.00;89.50;;;;;;1901143;75;21027;-44
2022/02/01 00:52:59;;;;;;;7.92;4.03;;;4.00;89.40;;;;;;1900958;75;21032;-44
2022/02/01 00:55:29;;;;;;;11.12;5.37;;;4.00;89.20;;;;;;1901098;75;20999;-44
2022/02/01 00:57:58;;;;;;;9.00;4.60;;;3.90;89.40;;;;;;1901118;75;21073;-45
2022/02/01 01:00:27;;;;;;;10.32;5.17;;;3.90;89.10;;;;;;1901112;75;21109;-44
2022/02/01 01:02:57;;;;;;;8.08;4.58;;;3.90;89.30;;;;;;1901109;75;21031;-44
2022/02/01 01:05:26;;;;;;;11.38;4.53;;;3.80;89.40;;;;;;1901086;75;21105;-44
2022/02/01 01:07:56;;;;;;;7.80;4.60;;;3.80;89.20;;;;;;1900952;75;21051;-44
2022/02/01 01:10:25;;;;;;;11.03;4.80;;;3.70;89.00;;;;;;1901016;75;21097;-44
2022/02/01 01:15:50;;;;;;;7.25;4.05;;;3.70;89.50;;;;;;1900988;75;21086;-44
2022/02/01 01:46:18;;;;;;;10.80;5.00;;;3.40;88.60;;;;;;1894862;75;21226;-45
2022/02/01 01:54:17;;;;;;;13.93;6.08;;;3.30;89.70;;;;;;1894742;75;21093;-44
2022/02/01 01:56:47;;;;;;;11.30;5.42;;;3.30;90.00;;;;;;1894757;75;21039;-44
2022/02/01 01:59:17;;;;;;;13.85;6.30;;;3.40;90.10;;;;;;1894668;76;21007;-44
2022/02/01 02:01:46;;;;;;;9.50;5.17;;;3.40;90.00;;;;;;1894634;75;21032;-44
2022/02/01 02:04:16;;;;;;;11.70;6.03;;;3.40;89.90;;;;;;1894675;76;21097;-44
2022/02/01 02:06:45;;;;;;;11.12;5.92;;;3.50;90.10;;;;;;1894711;75;21032;-45
2022/02/01 02:09:15;;;;;;;7.78;5.05;;;3.50;89.90;;;;;;1894610;75;21089;-44
2022/02/01 02:11:52;;;;;;;8.65;5.47;;;3.50;90.00;;;;;;1894710;76;21047;-45
2022/02/01 02:14:21;;;;;;;10.53;6.35;;;3.60;90.10;;;;;;1893864;75;21044;-44
2022/02/01 02:16:59;;;;;;;10.93;4.50;;;3.60;90.10;;;;;;1894880;75;21043;-44
2022/02/01 02:19:33;;;;;;;9.83;5.70;;;3.60;90.00;;;;;;1894734;76;21524;-45
2022/02/01 02:22:08;;;;;;;8.00;4.93;;;3.60;89.90;;;;;;1894964;75;21137;-44
2022/02/01 02:24:41;;;;;;;7.08;4.25;;;3.70;90.00;;;;;;1894910;75;21027;-44
2022/02/01 02:27:10;;;;;;;8.15;5.45;;;3.70;89.90;;;;;;1895073;76;21083;-44
2022/02/01 02:29:39;;;;;;;8.75;5.10;;;3.70;90.10;;;;;;1894854;75;21031;-44
2022/02/01 02:32:09;;;;;;;9.88;5.53;;;3.70;90.10;;;;;;1894818;75;21023;-45
2022/02/01 02:34:39;;;;;;;8.48;4.60;;;3.80;90.10;;;;;;1894858;76;21008;-44
2022/02/01 02:37:14;;;;;;;9.03;4.78;;;3.80;90.10;;;;;;1894798;75;21000;-44
2022/02/01 02:40:08;;;;;;;7.87;4.90;;;3.90;90.10;;;;;;1894069;75;21007;-44
2022/02/01 02:42:33;;;;;;;5.90;3.92;;;3.90;90.10;;;;;;1891912;75;21126;-44
2022/02/01 02:45:05;;;;;;;8.98;5.00;;;3.90;90.10;;;;;;1895177;75;21148;-45
2022/02/01 02:47:35;;;;;;;5.95;4.17;;;4.00;90.10;;;;;;1901087;75;21043;-44
2022/02/01 02:50:05;;;;;;;7.97;4.22;;;4.00;90.10;;;;;;1901196;75;21035;-43
2022/02/01 02:52:34;;;;;;;7.72;4.65;;;4.00;90.10;;;;;;1901056;75;21027;-44
2022/02/01 02:55:03;;;;;;;6.62;4.35;;;4.10;90.10;;;;;;1901162;75;21137;-44
2022/02/01 02:57:33;;;;;;;9.48;5.15;;;4.10;90.10;;;;;;1901060;75;21171;-44
2022/02/01 03:00:03;;;;;;;9.75;4.47;;;4.00;90.10;;;;;;1901026;75;21035;-44
2022/02/01 03:02:33;;;;;;;7.70;4.78;;;4.00;90.10;;;;;;1901190;75;21031;-44
2022/02/01 03:05:02;;;;;;;14.45;6.05;;;4.00;90.10;;;;;;1901240;75;21097;-44
2022/02/01 03:07:32;;;;;;;6.97;4.75;;;4.00;90.20;;;;;;1901089;75;21031;-44
2022/02/01 03:10:01;;;;;;;11.22;5.22;;;4.00;90.20;;;;;;1900963;75;21007;-46
2022/02/01 03:13:06;;;;;;;13.30;6.15;;;4.00;90.20;;;;;;1900919;75;21152;-45
2022/02/01 03:15:35;;;;;;;18.45;12.23;;;4.00;90.20;;;;;;1896346;75;21113;-44
2022/02/01 03:20:22;;;;;;;7.92;5.42;;;4.00;90.20;;;;;;1901160;75;21051;-44
2022/02/01 03:22:51;;;;;;;7.30;5.20;;;4.00;90.20;;;;;;1900961;75;21007;-45
2022/02/01 03:25:21;;;;;;;7.20;5.25;;;4.00;90.20;;;;;;1901104;75;21105;-44
2022/02/01 03:27:50;;;;;;;10.38;6.30;;;4.00;89.90;;;;;;1900936;75;21027;-44
2022/02/01 03:30:22;;;;;;;11.68;6.50;;;3.90;90.10;;;;;;1901094;75;21461;-44
2022/02/01 03:32:51;;;;;;;6.37;5.10;;;3.80;90.20;;;;;;1900956;75;21113;-44
2022/02/01 03:35:21;;;;;;;10.08;6.25;;;3.80;90.30;;;;;;1901016;75;21023;-44
2022/02/01 03:37:50;;;;;;;8.50;5.70;;;3.80;90.40;;;;;;1901068;75;21016;-45
2022/02/01 03:40:21;;;;;;;10.20;4.78;;;3.80;90.40;;;;;;1901065;75;21089;-44
2022/02/01 03:42:50;;;;;;;9.10;5.17;;;3.80;90.30;;;;;;1901072;75;21118;-45
2022/02/01 03:45:20;;;;;;;8.18;5.53;;;3.80;90.40;;;;;;1901068;75;21109;-44
2022/02/01 03:47:50;;;;;;;13.28;6.55;;;3.80;90.30;;;;;;1900995;75;21109;-44
2022/02/01 03:50:19;;;;;;;9.35;5.80;;;3.80;90.30;;;;;;1900984;75;21056;-44
2022/02/01 03:52:49;;;;;;;9.88;6.47;;;3.80;90.30;;;;;;1900973;75;21032;-44
2022/02/01 03:55:18;;;;;;;7.42;4.60;;;3.80;90.30;;;;;;1901064;75;21020;-44
2022/02/01 03:57:48;;;;;;;9.00;5.47;;;3.70;90.20;;;;;;1900938;75;21082;-44
2022/02/01 04:00:17;;;;;;;16.32;7.25;;;3.70;90.20;;;;;;1900931;75;21023;-45
2022/02/01 04:02:48;;;;;;;9.35;6.10;;;3.70;90.20;;;;;;1901143;75;21047;-43
2022/02/01 04:05:17;;;;;;;10.78;6.15;;;3.60;90.10;;;;;;1901069;75;21024;-44
2022/02/01 04:07:48;;;;;;;8.98;6.55;;;3.60;90.10;;;;;;1901072;75;21029;-45
2022/02/01 04:10:22;;;;;;;10.55;6.70;;;3.60;90.20;;;;;;1900982;75;21109;-44
2022/02/01 04:12:50;;;;;;;12.07;7.10;;;3.60;90.30;;;;;;1899728;75;21117;-44
2022/02/01 04:15:22;;;;;;;11.83;6.17;;;3.70;90.40;;;;;;1901062;75;21101;-45
2022/02/01 04:17:51;;;;;;;15.83;10.65;;;3.70;90.30;;;;;;1901064;75;21023;-43
2022/02/01 04:20:21;;;;;;;9.80;6.58;;;3.80;90.30;;;;;;1901054;75;21117;-44
2022/02/01 04:22:51;;;;;;;9.88;5.80;;;3.60;88.00;;;;;;1901082;75;21016;-44
2022/02/01 04:25:20;;;;;;;10.18;5.70;;;3.40;88.00;;;;;;1901056;75;21032;-44
2022/02/01 04:27:49;;;;;;;13.68;6.15;;;3.20;88.60;;;;;;1901015;75;21031;-44
2022/02/01 04:30:20;;;;;;;9.73;5.60;;;3.10;88.80;;;;;;1901036;75;21089;-44
2022/02/01 04:32:51;;;;;;;10.00;7.00;;;3.00;88.80;;;;;;1900941;75;21035;-45
2022/02/01 04:35:23;;;;;;;9.40;5.55;;;2.90;89.30;;;;;;1900809;75;21007;-44
2022/02/01 04:37:54;;;;;;;9.23;6.03;;;2.70;89.50;;;;;;1900235;75;21513;-44
2022/02/01 04:40:25;;;;;;;8.80;6.22;;;2.70;89.60;;;;;;1901089;75;21085;-47
2022/02/01 04:42:54;;;;;;;20.72;11.08;;;2.50;89.70;;;;;;1900862;75;21090;-44
2022/02/01 04:45:25;;;;;;;10.32;5.62;;;2.50;90.00;;;;;;1900942;75;21089;-44
2022/02/01 04:47:54;;;;;;;11.57;6.87;;;2.40;90.20;;;;;;1901101;75;21074;-44
2022/02/01 04:50:26;;;;;;;10.18;6.30;;;2.40;90.30;;;;;;1901004;75;21264;-44
2022/02/01 04:52:57;;;;;;;15.55;7.75;;;2.30;90.60;;;;;;1901074;75;21438;-45
2022/02/01 04:55:40;;;;;;;14.63;6.37;;;2.40;90.70;;;;;;1900976;75;21027;-44
2022/02/01 04:57:59;;;;;;;15.13;5.67;;;2.30;90.80;;;;;;1898683;75;21031;-44
2022/02/01 05:00:30;;;;;;;10.40;6.20;;;2.40;90.70;;;;;;1901064;75;21089;-45
2022/02/01 05:03:01;;;;;;;18.92;5.40;;;2.50;90.50;;;;;;1901123;75;21030;-44
2022/02/01 05:05:30;;;;;;;12.15;6.17;;;2.50;90.70;;;;;;1901128;75;21532;-44
2022/02/01 05:08:02;;;;;;;9.70;5.55;;;2.50;90.80;;;;;;1901012;75;21152;-45
2022/02/01 05:10:33;;;;;;;6.08;3.65;;;2.60;90.50;;;;;;1901058;75;21027;-45
2022/02/01 05:15:42;;;;;;;9.70;4.17;;;2.70;90.70;;;;;;1901055;75;21101;-45
2022/02/01 05:18:18;;;;;;;22.98;16.37;;;2.70;90.70;;;;;;1901078;75;21030;-46
2022/02/01 05:23:17;;;;;;;2.90;2.52;;;2.70;90.50;;;;;;1901089;75;21497;-45
2022/02/01 05:25:46;;;;;;;1.27;0.85;;;2.70;91.00;;;;;;1901033;75;21046;-45
2022/02/01 05:28:16;;;;;;;2.17;1.27;;;2.70;91.20;;;;;;1900992;75;21023;-45
2022/02/01 05:30:45;;;;;;;1.55;1.00;;;2.70;91.20;;;;;;1900991;75;21031;-45
2022/02/01 05:33:15;;;;;;;1.20;1.10;;;2.80;91.30;;;;;;1901015;75;21149;-45
2022/02/01 05:35:44;;;;;;;3.42;1.50;;;2.90;91.10;;;;;;1900911;75;21078;-44
2022/02/01 05:38:14;;;;;;;2.70;1.85;;;2.90;91.20;;;;;;1900875;75;21007;-45
2022/02/01 05:40:43;;;;;;;3.52;1.70;;;3.00;91.00;;;;;;1900836;75;21031;-45
2022/02/01 05:43:18;;;;;;;2.50;2.12;;;3.10;90.90;;;;;;1900870;75;21034;-44
2022/02/01 05:45:43;;;;;;;2.08;1.72;;;3.20;90.90;;;;;;1900380;75;21003;-44
2022/02/01 05:48:14;;;;;;;6.08;1.80;;;3.30;90.70;;;;;;1900951;75;21031;-45
2022/02/01 05:50:44;;;;;;;5.37;2.33;;;3.30;90.80;;;;;;1900883;75;21039;-45
2022/02/01 05:53:13;;;;;;;3.87;1.42;;;3.40;90.70;;;;;;1900882;75;21027;-44
2022/02/01 05:55:42;;;;;;;1.42;1.32;;;3.40;90.60;;;;;;1900882;75;20996;-45
2022/02/01 05:58:13;;;;;;;3.08;1.37;;;3.50;90.60;;;;;;1900968;75;21145;-45
2022/02/01 06:00:43;;;;;;;5.30;1.50;;;3.60;90.70;;;;;;1900852;75;20999;-45
2022/02/01 06:03:12;;;;;;;4.22;3.22;;;3.70;90.70;;;;;;1900827;75;21023;-45
2022/02/01 06:05:42;;;;;;;3.22;2.30;;;3.80;90.70;;;;;;1900999;75;21003;-45
2022/02/01 06:08:12;;;;;;;2.00;1.30;;;3.90;90.60;;;;;;1900980;75;21096;-45
2022/02/01 06:10:41;;;;;;;1.57;1.20;;;4.00;90.50;;;;;;1900890;75;21027;-45
2022/02/01 06:13:10;;;;;;;1.55;1.30;;;4.10;90.40;;;;;;1900900;75;21102;-45
2022/02/01 06:15:40;;;;;;;1.10;1.00;;;4.10;90.40;;;;;;1900961;75;21098;-44
2022/02/01 06:18:09;;;;;;;1.02;1.02;;;4.20;90.20;;;;;;1900829;75;20999;-45
2022/02/01 06:20:39;;;;;;;3.25;1.35;;;4.20;90.30;;;;;;1900964;75;21023;-44
2022/02/01 06:23:18;;;;;;;4.83;1.60;;;4.20;90.20;;;;;;1900909;75;21113;-45
2022/02/01 06:25:49;;;;;;;1.72;1.62;;;4.30;90.20;;;;;;1900972;75;21101;-45
2022/02/01 06:28:21;;;;;;;5.87;1.57;;;4.40;90.30;;;;;;1900912;75;21031;-46
2022/02/01 06:30:51;;;;;;;3.10;2.27;;;4.50;90.30;;;;;;1900696;75;21059;-45
2022/02/01 06:33:21;;;;;;;4.90;1.98;;;4.60;90.30;;;;;;1900855;75;21118;-44
2022/02/01 06:35:50;;;;;;;5.47;1.27;;;4.60;90.10;;;;;;1900941;75;21039;-44
2022/02/01 06:38:20;;;;;;;1.87;1.30;;;4.60;89.50;;;;;;1900855;75;21031;-45
2022/02/01 06:40:50;;;;;;;1.15;1.00;;;4.50;89.20;;;;;;1900813;75;21051;-44
2022/02/01 06:43:19;;;;;;;2.42;1.02;;;4.50;89.30;;;;;;1900825;75;21089;-44
2022/02/01 06:45:48;;;;;;;3.80;1.27;;;4.40;89.30;;;;;;1900832;75;21093;-47
2022/02/01 06:48:18;;;;;;;2.30;2.00;;;4.30;89.50;;;;;;1896792;75;21059;-45
2022/02/01 06:50:48;;;;;;;1.35;1.25;;;4.30;89.70;;;;;;1894665;75;21109;-47
2022/02/01 06:53:19;;;;;;;3.05;1.70;;;4.30;89.80;;;;;;1894643;75;21019;-44
2022/02/01 06:56:09;;;;;;;1.92;1.75;;;4.30;90.00;;;;;;1894623;75;21015;-45
2022/02/01 06:58:37;;;;;;;6.47;1.87;;;4.30;89.80;;;;;;1894776;76;21078;-45
2022/02/01 07:01:08;;;;;;;3.42;1.70;;;4.30;90.10;;;;;;1894844;75;21094;-44
2022/02/01 07:03:37;;;;;;;6.80;2.52;;;4.40;90.20;;;;;;1894686;75;21055;-44
2022/02/01 07:06:12;;;;;;;3.47;2.60;;;4.40;90.10;;;;;;1894653;76;21040;-43
2022/02/01 07:08:37;;;;;;;7.30;3.42;;;4.50;90.20;;;;;;1894298;75;21110;-44
2022/02/01 07:11:06;;;;;;;8.00;4.15;;;4.70;90.30;;;;;;1894689;76;21028;-46
2022/02/01 07:13:36;;;;;;;3.77;2.08;;;4.70;90.10;;;;;;1894755;76;21075;-47
2022/02/01 07:16:07;;;;;;;1.90;1.60;;;4.80;89.90;;;;;;1894697;76;21070;-45
2022/02/01 07:18:37;;;;;;;2.35;1.55;;;4.70;89.30;;;;;;1894767;75;21035;-45
2022/02/01 07:21:07;;;;;;;2.65;1.45;;;4.70;89.10;;;;;;1894820;76;21109;-44
2022/02/01 07:23:36;;;;;;;4.53;1.60;;;4.70;88.50;;;;;;1894686;76;21093;-46
2022/02/01 07:26:07;;;;;;;2.17;1.60;;;4.70;88.90;;;;;;1894716;76;21132;-44
2022/02/01 07:28:37;;;;;;;2.27;1.87;;;4.70;89.20;;;;;;1894813;76;21097;-44
2022/02/01 07:31:09;;;;;;;3.62;1.75;;;4.80;89.10;;;;;;1894780;75;21047;-45
2022/02/01 07:33:42;;;;;;;2.25;1.50;;;4.80;88.50;;;;;;1894834;76;21007;-46
2022/02/01 07:36:10;;;;;;;5.37;2.12;;;4.80;88.60;;;;;;1893156;75;21052;-47
2022/02/01 07:38:39;;;;;;;5.33;2.27;;;4.80;88.80;;;;;;1894811;76;21120;-47
2022/02/01 07:41:09;;;;;;;7.28;1.85;;;4.90;88.80;;;;;;1894703;75;21083;-48
2022/02/01 07:43:38;;;;;;;5.00;1.75;;;4.80;88.30;;;;;;1894645;75;21032;-45
2022/02/01 07:46:11;;;;;;;2.98;1.67;;;4.80;88.50;;;;;;1894803;76;21023;-47
2022/02/01 07:48:39;;;;;;;2.02;1.55;;;4.90;88.80;;;;;;1896634;75;21146;-44
2022/02/01 07:51:08;;;;;;;10.72;6.85;;;4.90;89.00;;;;;;1900326;75;21078;-43
2022/02/01 07:53:38;;;;;;;1.77;1.67;;;4.90;88.90;;;;;;1900339;75;21050;-44
2022/02/01 07:56:07;;;;;;;4.67;1.70;;;4.90;88.40;;;;;;1900276;75;21085;-43
2022/02/01 07:58:36;;;;;;;1.45;1.30;;;4.90;87.90;;;;;;1900336;75;21023;-44
2022/02/01 08:01:06;;;;;;;6.05;1.45;;;4.90;87.20;;;;;;1900387;75;21067;-43
2022/02/01 08:03:35;;;;;;;1.10;1.10;;;4.90;85.40;;;;;;1900200;75;21023;-44
2022/02/01 08:06:04;;;;;;;1.30;1.20;;;5.00;86.70;;;;;;1900380;75;21081;-44
2022/02/01 08:08:34;;;;;;;1.42;1.00;;;5.00;86.30;;;;;;1900380;75;21097;-43
2022/02/01 08:11:09;;;;;;;7.90;1.42;;;5.10;86.50;;;;;;1900180;75;21003;-47
2022/02/01 08:16:42;;;;;;;5.08;1.82;;;5.20;86.60;;;;;;1900442;75;21019;-43
2022/02/01 08:19:21;;;;;;;4.10;1.62;;;5.30;86.70;;;;;;1897939;75;21342;-43
2022/02/01 08:21:46;;;;;;;2.52;1.57;;;5.40;86.90;;;;;;1898146;75;21152;-44
2022/02/01 08:24:27;;;;;;;5.60;1.70;;;5.50;87.20;;;;;;1900581;75;21019;-44
2022/02/01 08:26:56;;;;;;;7.22;2.65;;;5.60;87.50;;;;;;1900233;75;21148;-45
2022/02/01 08:29:25;;;;;;;11.50;3.10;;;5.80;87.70;;;;;;1900238;75;21058;-45
2022/02/01 08:31:55;;;;;;;10.90;3.65;;;5.90;88.10;;;;;;1900202;75;21062;-45
2022/02/01 08:34:24;;;;;;;3.98;1.65;;;6.00;88.10;;;;;;1900180;75;21094;-47
2022/02/01 08:36:54;;;;;;;4.53;2.22;;;6.20;87.80;;;;;;1900404;75;21101;-48
2022/02/01 08:39:23;;;;;;;4.37;1.92;;;6.30;87.70;;;;;;1906070;75;21450;-46
2022/02/01 08:41:53;;;;;;;4.72;1.75;;;6.30;87.60;;;;;;1919974;75;21028;-48
2022/02/01 08:44:28;;;;;;;3.25;1.65;;;6.40;87.70;;;;;;1920049;75;21059;-45
2022/02/01 08:46:53;;;;;;;16.32;2.98;;;6.60;87.30;;;;;;1919416;75;21098;-47
2022/02/01 08:49:23;;;;;;;3.05;2.37;;;6.70;87.00;;;;;;1922350;74;21071;-45
2022/02/01 08:52:05;;;;;;;12.88;2.10;;;6.80;84.50;;;;;;1923995;74;21102;-48
2022/02/01 08:54:33;;;;;;;2.25;1.22;;;6.80;85.70;;;;;;1923816;74;21004;-47
2022/02/01 08:57:21;;;;;;;3.22;1.30;;;6.90;85.20;;;;;;1924319;74;21094;-50
2022/02/01 09:00:04;;;;;;;2.87;1.67;;;6.90;85.50;;;;;;1924149;74;21125;-46
2022/02/01 09:02:27;;;;;;;10.15;2.30;;;6.90;85.20;;;;;;1922602;74;21087;-46
2022/02/01 09:04:57;;;;;;;13.35;2.85;;;6.90;84.70;;;;;;1924018;74;21093;-46
2022/02/01 09:07:27;;;;;;;5.80;1.98;;;6.90;84.30;;;;;;1924019;74;21081;-49
2022/02/01 09:09:56;;;;;;;5.05;1.67;;;6.90;84.10;;;;;;1923797;74;21078;-46
2022/02/01 09:12:27;;;;;;;5.35;1.35;;;6.90;83.70;;;;;;1924153;74;21103;-46
2022/02/01 09:14:56;;;;;;;1.90;1.17;;;6.90;82.20;;;;;;1923944;74;21039;-44
2022/02/01 09:17:25;;;;;;;5.45;1.55;;;6.90;81.50;;;;;;1924004;74;21127;-44
2022/02/01 09:19:54;;;;;;;2.72;1.22;;;6.90;82.20;;;;;;1923997;74;21075;-44
2022/02/01 09:22:24;;;;;;;3.45;1.75;;;6.90;82.50;;;;;;1924043;74;21000;-45
2022/02/01 09:24:53;;;;;;;4.87;1.37;;;6.90;84.00;;;;;;1923861;74;21027;-45
2022/02/01 09:27:23;;;;;;;8.58;1.92;;;6.90;83.70;;;;;;1924084;74;21062;-45
2022/02/01 09:29:53;;;;;;;3.35;1.77;;;7.00;84.80;;;;;;1924034;74;21145;-45
2022/02/01 09:32:24;;;;;;;4.67;1.77;;;7.00;84.70;;;;;;1924003;74;21067;-44
2022/02/01 09:34:54;;;;;;;7.70;2.50;;;7.10;84.80;;;;;;1923927;74;21097;-46
2022/02/01 09:37:23;;;;;;;2.20;2.00;;;7.20;84.50;;;;;;1923997;74;21024;-46
2022/02/01 09:39:53;;;;;;;4.00;1.95;;;7.20;84.60;;;;;;1924038;74;21028;-47
2022/02/01 09:42:27;;;;;;;5.47;2.17;;;7.20;84.10;;;;;;1923918;74;21099;-47
2022/02/01 09:44:53;;;;;;;8.15;2.87;;;7.20;83.90;;;;;;1923561;74;21040;-45
2022/02/01 09:47:46;;;;;;;4.40;1.70;;;7.20;83.40;;;;;;1923834;74;21083;-49
2022/02/01 09:50:17;;;;;;;9.18;2.25;;;7.20;82.50;;;;;;1866015;76;21135;-49
2022/02/01 09:52:47;;;;;;;3.27;2.08;;;7.30;82.20;;;;;;1878280;75;21080;-45
2022/02/01 09:55:17;;;;;;;6.25;2.33;;;7.30;82.60;;;;;;1878186;75;21056;-48
2022/02/01 09:57:49;;;;;;;7.75;2.67;;;7.30;82.80;;;;;;1878295;75;21069;-48
2022/02/01 10:00:21;;;;;;;7.08;2.92;;;7.40;83.80;;;;;;1875452;75;21491;-45
2022/02/01 10:02:58;;;;;;;10.43;2.67;;;7.40;83.00;;;;;;1878293;76;21041;-45
2022/02/01 10:05:28;;;;;;;7.30;2.42;;;7.50;82.90;;;;;;1878277;76;21092;-45
2022/02/01 10:07:59;;;;;;;5.75;2.70;;;7.50;81.60;;;;;;1878135;76;21112;-46
2022/02/01 10:10:34;;;;;;;3.42;2.77;;;7.50;82.30;;;;;;1878209;75;21025;-45
2022/02/01 10:13:15;;;;;;;6.20;3.10;;;7.60;82.30;;;;;;1877881;76;21131;-45
2022/02/01 10:15:58;;;;;;;8.45;2.75;;;7.60;82.10;;;;;;1878373;75;21527;-48
2022/02/01 10:18:31;;;;;;;2.90;2.02;;;7.60;81.60;;;;;;1878096;76;21018;-47
2022/02/01 10:21:08;;;;;;;5.37;2.12;;;7.70;81.20;;;;;;1878265;76;21002;-47
2022/02/01 10:23:40;;;;;;;6.12;2.60;;;7.80;81.50;;;;;;1877239;75;21554;-44
2022/02/01 10:26:16;;;;;;;9.60;2.92;;;7.70;82.10;;;;;;1878100;75;21163;-45
2022/02/01 10:29:05;;;;;;;4.15;1.98;;;7.80;81.60;;;;;;1878206;75;21523;-45
2022/02/01 10:31:51;;;;;;;3.00;2.30;;;7.80;80.30;;;;;;1878242;75;21103;-44
2022/02/01 10:37:04;;;;;;;2.40;2.08;;;7.90;80.70;;;;;;1878149;75;21072;-44
2022/02/01 10:39:33;;;;;;;;;;;7.90;79.60;;;;;;1880988;75;21096;-44
2022/02/01 10:42:05;;;;;;;12.68;2.33;;;7.90;76.90;;;;;;1878367;76;20347;-45
2022/02/01 10:44:43;;;;;;;5.33;2.40;;;7.80;79.50;;;;;;1878180;75;21585;-46
2022/02/01 10:47:14;;;;;;;4.80;2.12;;;7.80;79.50;;;;;;1878272;75;21002;-44
2022/02/01 10:49:44;;;;;;;5.28;2.62;;;7.80;79.00;;;;;;1880377;75;21080;-44
2022/02/01 10:52:15;;;;;;;9.50;2.67;;;7.80;80.60;;;;;;1887418;75;21521;-46
2022/02/01 10:54:45;;;;;;;4.45;2.52;;;7.80;80.20;;;;;;1887589;75;21138;-43
2022/02/01 10:57:15;;;;;;;6.28;3.12;;;7.80;80.10;;;;;;1887539;75;21053;-46
2022/02/01 10:59:45;;;;;;;7.80;3.17;;;7.80;81.00;;;;;;1887295;75;21138;-45
2022/02/01 11:02:14;;;;;;;3.85;3.20;;;7.90;80.40;;;;;;1887536;76;21025;-45
2022/02/01 11:04:44;;;;;;;3.62;3.15;;;7.90;79.70;;;;;;1887492;76;21141;-45
2022/02/01 11:07:13;;;;;;;8.55;3.67;;;7.90;79.40;;;;;;1887445;75;21029;-44
2022/02/01 11:09:43;;;;;;;10.68;2.60;;;8.00;80.20;;;;;;1887507;75;21158;-46
2022/02/01 11:12:13;;;;;;;6.60;2.92;;;8.00;79.20;;;;;;1887542;75;21100;-44
2022/02/01 11:14:45;;;;;;;8.13;2.90;;;7.90;78.50;;;;;;1887514;75;21037;-44
2022/02/01 11:17:23;;;;;;;4.90;3.12;;;8.00;80.20;;;;;;1887638;76;21088;-46
2022/02/01 11:19:55;;;;;;;6.90;3.05;;;8.00;80.70;;;;;;1887503;75;21021;-47
2022/02/01 11:22:28;;;;;;;4.08;2.55;;;8.10;80.30;;;;;;1887601;75;21182;-46
2022/02/01 11:25:00;;;;;;;7.67;2.85;;;8.20;79.90;;;;;;1887560;76;21077;-46
2022/02/01 11:27:43;;;;;;;7.20;2.83;;;8.20;78.50;;;;;;1887308;75;21033;-47
2022/02/01 11:30:13;;;;;;;8.40;3.22;;;8.30;79.50;;;;;;1887575;75;21033;-47
2022/02/01 11:32:51;;;;;;;9.70;3.08;;;8.30;79.70;;;;;;1887566;75;21095;-46
2022/02/01 11:35:27;;;;;;;8.83;3.77;;;8.40;79.00;;;;;;1887433;75;21037;-46
2022/02/01 11:38:08;;;;;;;15.53;3.15;;;8.40;79.90;;;;;;1887638;75;21045;-45
2022/02/01 11:40:41;;;;;;;4.45;2.58;;;8.50;79.50;;;;;;1887534;76;21154;-47
2022/02/01 11:43:12;;;;;;;10.20;3.83;;;8.50;79.60;;;;;;1887524;75;21100;-46
2022/02/01 11:45:43;;;;;;;9.13;3.10;;;8.50;79.20;;;;;;1887565;76;21087;-47
2022/02/01 11:48:19;;;;;;;10.32;2.70;;;8.60;79.10;;;;;;1886251;75;21068;-45
2022/02/01 11:50:53;;;;;;;5.83;2.90;;;8.60;78.00;;;;;;1900277;75;21044;-46
2022/02/01 11:53:31;;;;;;;7.97;3.17;;;8.50;78.50;;;;;;1918058;75;21095;-45
2022/02/01 11:56:01;;;;;;;7.40;3.47;;;8.60;79.00;;;;;;1917341;74;21141;-47
2022/02/01 11:58:36;;;;;;;11.25;3.47;;;8.60;79.00;;;;;;1918030;75;21020;-46
2022/02/01 12:01:08;;;;;;;6.50;2.35;;;8.70;78.40;;;;;;1918085;75;21090;-46
2022/02/01 12:03:39;;;;;;;7.75;2.80;;;8.70;78.80;;;;;;1917860;75;21524;-45
2022/02/01 12:06:10;;;;;;;5.65;3.52;;;8.70;78.70;;;;;;1917861;75;21537;-46
2022/02/01 12:08:43;;;;;;;5.37;3.15;;;8.70;79.00;;;;;;1916277;75;21551;-44
2022/02/01 12:11:13;;;;;;;6.78;3.22;;;8.70;78.90;;;;;;1917718;74;21111;-46
2022/02/01 12:13:43;;;;;;;5.60;3.00;;;8.70;78.80;;;;;;1917947;75;21047;-49
2022/02/01 12:16:12;;;;;;;6.90;3.75;;;8.70;78.60;;;;;;1918032;75;21137;-44
2022/02/01 12:18:59;;;;;;;7.17;3.52;;;8.80;78.80;;;;;;1917648;74;21553;-47
2022/02/01 12:21:31;;;;;;;6.62;2.83;;;8.80;78.70;;;;;;1882951;75;21118;-45
2022/02/01 12:24:07;;;;;;;5.87;3.92;;;8.80;78.50;;;;;;1918539;75;21012;-44
2022/02/01 12:26:35;;;;;;;9.25;4.58;;;8.70;78.50;;;;;;1917814;75;21489;-45
2022/02/01 12:29:07;;;;;;;9.00;3.95;;;8.70;77.80;;;;;;1918704;75;21000;-45
2022/02/01 12:31:40;;;;;;;5.17;3.22;;;8.70;76.50;;;;;;1918716;73;21028;-47
2022/02/01 12:34:15;;;;;;;8.28;3.33;;;8.60;77.50;;;;;;1918628;75;21024;-45
2022/02/01 12:36:50;;;;;;;10.63;3.47;;;8.50;76.60;;;;;;1918845;75;21486;-44
2022/02/01 12:42:03;;;;;;;10.48;4.90;;;8.30;78.00;;;;;;1918621;75;21023;-44
2022/02/01 12:47:08;;;;;;;8.95;3.83;;;8.20;77.60;;;;;;1918616;75;21048;-44
2022/02/01 12:49:42;;;;;;;6.55;3.70;;;8.10;77.60;;;;;;1918568;75;21134;-43
2022/02/01 12:52:26;;;;;;;7.50;3.45;;;8.10;78.40;;;;;;1923348;74;21113;-44
2022/02/01 12:55:04;;;;;;;7.75;4.12;;;8.10;78.30;;;;;;1924674;74;21074;-44
2022/02/01 12:57:35;;;;;;;5.28;3.37;;;8.00;77.90;;;;;;1924766;74;21012;-44
2022/02/01 13:00:08;;;;;;;7.80;4.22;;;8.00;77.80;;;;;;1924701;74;21078;-45
2022/02/01 13:02:37;;;;;;;5.40;3.83;;;8.00;78.70;;;;;;1924703;74;21032;-44
2022/02/01 13:05:13;;;;;;;7.70;4.00;;;7.90;77.80;;;;;;1924647;74;21091;-45
2022/02/01 13:14:24;;;;;;;6.83;4.10;;;7.80;79.00;;;;;;1901076;74;20099;-44
2022/02/01 13:15:41;;;;;;;;;;;7.80;79.20;;;;;;1918818;74;21016;-44
2022/02/01 13:18:21;;;;;;;5.80;4.37;;;7.70;78.30;;;;;;1923919;74;20102;-44
2022/02/01 13:20:57;;;;;;;7.97;4.55;;;7.70;79.20;;;;;;1923904;74;21059;-44
2022/02/01 13:23:46;;;;;;;9.55;3.55;;;7.70;79.00;;;;;;1924710;74;21093;-44
2022/02/01 13:26:22;;;;;;;6.65;4.40;;;7.70;79.20;;;;;;1924625;74;21035;-44
2022/02/01 13:28:59;;;;;;;10.43;5.33;;;7.70;79.50;;;;;;1924630;74;21474;-44
2022/02/01 13:31:34;;;;;;;10.23;5.42;;;7.60;79.70;;;;;;1924797;74;21055;-44
2022/02/01 13:34:06;;;;;;;10.32;5.47;;;7.70;79.80;;;;;;1924838;74;21078;-45
2022/02/01 13:36:58;;;;;;;12.33;5.35;;;7.70;79.80;;;;;;1924643;74;21052;-44
2022/02/01 13:39:32;;;;;;;9.08;5.00;;;7.70;80.00;;;;;;1923175;74;21138;-44
2022/02/01 13:42:10;;;;;;;9.60;5.35;;;7.70;80.10;;;;;;1924726;74;21173;-45
2022/02/01 13:44:40;;;;;;;13.38;4.78;;;7.70;80.20;;;;;;1924640;74;21094;-44
2022/02/01 13:47:13;;;;;;;7.83;5.33;;;7.70;80.20;;;;;;1924675;74;21024;-45
2022/02/01 13:49:42;;;;;;;8.48;4.72;;;7.70;80.50;;;;;;1924738;74;21091;-45
2022/02/01 13:52:12;;;;;;;7.85;5.35;;;7.70;80.50;;;;;;1921504;74;21071;-46
2022/02/01 13:54:46;;;;;;;8.08;5.08;;;7.70;80.40;;;;;;1918574;75;21023;-44
2022/02/01 13:57:18;;;;;;;13.93;7.93;;;7.70;80.60;;;;;;1918859;74;21000;-44
2022/02/01 13:59:48;;;;;;;9.23;6.10;;;7.70;80.80;;;;;;1918582;75;21093;-44
2022/02/01 14:02:31;;;;;;;7.33;5.60;;;7.70;80.90;;;;;;1918581;75;21091;-44
2022/02/01 14:05:03;;;;;;;12.20;6.22;;;7.70;81.10;;;;;;1917545;74;21047;-44
2022/02/01 14:07:42;;;;;;;11.83;8.00;;;7.70;81.00;;;;;;1917969;75;21133;-44
2022/02/01 14:10:14;;;;;;;9.15;6.25;;;7.60;81.20;;;;;;1917341;74;21043;-44
2022/02/01 14:26:39;;;;;;;8.88;5.65;;;7.40;81.90;;;;;;1918629;75;21125;-44
2022/02/01 14:28:52;;;;;;;8.50;6.40;;;7.40;82.10;;;;;;1914048;75;21028;-43
2022/02/01 14:34:13;;;;;;;15.98;11.40;;;7.40;82.50;;;;;;1918588;74;21176;-44
2022/02/01 14:36:40;;;;;;;21.50;15.63;;;7.40;82.50;;;;;;1917904;75;21079;-44
2022/02/01 14:39:17;;;;;;;28.87;18.77;;;7.40;82.60;;;;;;1918629;75;21576;-44
2022/02/01 14:44:41;;;;;;;11.08;7.42;;;7.30;82.90;;;;;;1918647;75;21102;-44
2022/02/01 14:47:05;;;;;;;15.40;7.87;;;7.30;82.80;;;;;;1917679;75;21028;-44
2022/02/01 14:49:36;;;;;;;11.68;8.15;;;7.20;83.00;;;;;;1918808;75;21118;-45
2022/02/01 14:52:05;;;;;;;9.93;7.40;;;7.20;83.20;;;;;;1916175;75;21060;-45
2022/02/01 14:54:44;;;;;;;13.03;7.35;;;7.20;83.30;;;;;;1908610;75;21058;-45
2022/02/01 15:13:40;;;;;;;15.05;9.43;;;6.60;84.20;;;;;;1849769;77;21234;-44
2022/02/01 15:16:10;;;;;;;13.78;8.70;;;6.60;84.70;;;;;;1908622;75;21068;-43
2022/02/01 15:18:40;;;;;;;14.47;9.15;;;6.70;84.70;;;;;;1908606;75;21075;-44
2022/02/01 15:21:09;;;;;;;15.80;11.03;;;6.70;84.90;;;;;;1908520;75;21071;-44